sensor_id;sensor_type;location;lat;lon;timestamp;pressure;altitude;pressure_sealevel;temperature;humidity
19890;BME280;10107;51.198;6.824;2023-11-18T00:01:57;-21413.03;;;3.51;100.00
19890;BME280;10107;51.198;6.824;2023-11-18T00:05:59;-21413.44;;;3.52;100.00
19890;BME280;10107;51.198;6.824;2023-11-18T00:10:03;-21414.78;;;3.57;100.00
19890;BME280;10107;51.198;6.824;2023-11-18T00:14:05;-21416.00;;;3.62;100.00
19890;BME280;10107;51.198;6.824;2023-11-18T00:18:07;-21417.72;;;3.69;100.00
19890;BME280;10107;51.198;6.824;2023-11-18T00:22:08;-21416.66;;;3.65;100.00
19890;BME280;10107;51.198;6.824;2023-11-18T00:26:12;-21416.66;;;3.65;100.00
19890;BME280;10107;51.198;6.824;2023-11-18T00:30:17;-21416.25;;;3.63;100.00
19890;BME280;10107;51.198;6.824;2023-11-18T00:34:19;-21417.59;;;3.68;100.00
19890;BME280;10107;51.198;6.824;2023-11-18T00:38:20;-21418.53;;;3.72;100.00
19890;BME280;10107;51.198;6.824;2023-11-18T00:42:24;-21419.34;;;3.75;100.00
19890;BME280;10107;51.198;6.824;2023-11-18T00:46:26;-21420.41;;;3.79;100.00
19890;BME280;10107;51.198;6.824;2023-11-18T00:50:28;-21421.63;;;3.84;100.00
19890;BME280;10107;51.198;6.824;2023-11-18T00:54:29;-21421.88;;;3.85;100.00
19890;BME280;10107;51.198;6.824;2023-11-18T00:58:33;-21422.94;;;3.89;100.00
19890;BME280;10107;51.198;6.824;2023-11-18T01:02:37;-21424.16;;;3.93;100.00
19890;BME280;10107;51.198;6.824;2023-11-18T01:06:39;-21422.94;;;3.89;100.00
19890;BME280;10107;51.198;6.824;2023-11-18T01:10:40;-21423.06;;;3.89;100.00
19890;BME280;10107;51.198;6.824;2023-11-18T01:14:43;-21422.53;;;3.87;100.00
19890;BME280;10107;51.198;6.824;2023-11-18T01:18:45;-21423.22;;;3.90;100.00
19890;BME280;10107;51.198;6.824;2023-11-18T01:22:47;-21421.63;;;3.84;100.00
19890;BME280;10107;51.198;6.824;2023-11-18T01:26:49;-21420.81;;;3.81;100.00
19890;BME280;10107;51.198;6.824;2023-11-18T01:30:52;-21421.06;;;3.82;100.00
19890;BME280;10107;51.198;6.824;2023-11-18T01:34:54;-21421.88;;;3.85;100.00
19890;BME280;10107;51.198;6.824;2023-11-18T01:38:56;-21420.41;;;3.79;100.00
19890;BME280;10107;51.198;6.824;2023-11-18T01:42:58;-21420.28;;;3.79;100.00
19890;BME280;10107;51.198;6.824;2023-11-18T01:47:02;-21421.22;;;3.82;100.00
19890;BME280;10107;51.198;6.824;2023-11-18T01:51:07;-21420.69;;;3.80;100.00
19890;BME280;10107;51.198;6.824;2023-11-18T01:55:10;-21420.69;;;3.80;100.00
19890;BME280;10107;51.198;6.824;2023-11-18T01:59:13;-21421.22;;;3.82;100.00
19890;BME280;10107;51.198;6.824;2023-11-18T02:03:20;-21419.59;;;3.76;100.00
19890;BME280;10107;51.198;6.824;2023-11-18T02:07:21;-21418.94;;;3.73;100.00
19890;BME280;10107;51.198;6.824;2023-11-18T02:11:30;-21419.75;;;3.76;100.00
19890;BME280;10107;51.198;6.824;2023-11-18T02:15:33;-21420.13;;;3.78;100.00
19890;BME280;10107;51.198;6.824;2023-11-18T02:19:38;-21419.88;;;3.77;100.00
19890;BME280;10107;51.198;6.824;2023-11-18T02:23:40;-21418.66;;;3.72;100.00
19890;BME280;10107;51.198;6.824;2023-11-18T02:27:46;-21417.59;;;3.68;100.00
19890;BME280;10107;51.198;6.824;2023-11-18T02:31:58;-21416.53;;;3.64;100.00
19890;BME280;10107;51.198;6.824;2023-11-18T02:36:05;-21416.00;;;3.62;100.00
19890;BME280;10107;51.198;6.824;2023-11-18T02:40:13;-21415.47;;;3.60;100.00
19890;BME280;10107;51.198;6.824;2023-11-18T02:44:18;-21415.47;;;3.60;100.00
19890;BME280;10107;51.198;6.824;2023-11-18T02:48:23;-21414.66;;;3.57;100.00
19890;BME280;10107;51.198;6.824;2023-11-18T02:52:27;-21414.91;;;3.58;100.00
19890;BME280;10107;51.198;6.824;2023-11-18T02:56:29;-21414.25;;;3.55;100.00
19890;BME280;10107;51.198;6.824;2023-11-18T03:00:32;-21414.66;;;3.57;100.00
19890;BME280;10107;51.198;6.824;2023-11-18T03:04:33;-21414.25;;;3.55;100.00
19890;BME280;10107;51.198;6.824;2023-11-18T03:08:35;-21414.25;;;3.55;100.00
19890;BME280;10107;51.198;6.824;2023-11-18T03:12:37;-21414.38;;;3.56;100.00
19890;BME280;10107;51.198;6.824;2023-11-18T03:16:40;-21415.47;;;3.60;100.00
19890;BME280;10107;51.198;6.824;2023-11-18T03:20:41;-21415.19;;;3.59;100.00
19890;BME280;10107;51.198;6.824;2023-11-18T03:24:43;-21414.78;;;3.57;100.00
19890;BME280;10107;51.198;6.824;2023-11-18T03:28:44;-21414.13;;;3.55;100.00
19890;BME280;10107;51.198;6.824;2023-11-18T03:32:47;-21412.38;;;3.48;100.00
19890;BME280;10107;51.198;6.824;2023-11-18T03:36:49;-21412.38;;;3.48;100.00
19890;BME280;10107;51.198;6.824;2023-11-18T03:40:51;-21411.69;;;3.46;100.00
19890;BME280;10107;51.198;6.824;2023-11-18T03:44:53;-21410.50;;;3.41;100.00
19890;BME280;10107;51.198;6.824;2023-11-18T03:48:56;-21409.16;;;3.36;100.00
19890;BME280;10107;51.198;6.824;2023-11-18T03:52:58;-21409.03;;;3.35;100.00
19890;BME280;10107;51.198;6.824;2023-11-18T03:56:59;-21408.22;;;3.32;100.00
19890;BME280;10107;51.198;6.824;2023-11-18T04:01:01;-21408.34;;;3.33;100.00
19890;BME280;10107;51.198;6.824;2023-11-18T04:05:05;-21409.03;;;3.35;100.00
19890;BME280;10107;51.198;6.824;2023-11-18T04:09:08;-21408.75;;;3.34;100.00
19890;BME280;10107;51.198;6.824;2023-11-18T04:13:10;-21408.75;;;3.34;100.00
19890;BME280;10107;51.198;6.824;2023-11-18T04:17:13;-21409.03;;;3.35;100.00
19890;BME280;10107;51.198;6.824;2023-11-18T04:21:16;-21409.28;;;3.36;100.00
19890;BME280;10107;51.198;6.824;2023-11-18T04:25:18;-21408.22;;;3.32;100.00
19890;BME280;10107;51.198;6.824;2023-11-18T04:29:19;-21406.63;;;3.26;100.00
19890;BME280;10107;51.198;6.824;2023-11-18T04:33:21;-21405.13;;;3.21;100.00
19890;BME280;10107;51.198;6.824;2023-11-18T04:37:26;-21403.81;;;3.15;100.00
19890;BME280;10107;51.198;6.824;2023-11-18T04:41:28;-21403.13;;;3.13;100.00
19890;BME280;10107;51.198;6.824;2023-11-18T04:45:30;-21403.41;;;3.14;100.00
19890;BME280;10107;51.198;6.824;2023-11-18T04:49:31;-21403.41;;;3.14;100.00
19890;BME280;10107;51.198;6.824;2023-11-18T04:53:34;-21402.88;;;3.12;100.00
19890;BME280;10107;51.198;6.824;2023-11-18T04:57:36;-21403.00;;;3.12;100.00
19890;BME280;10107;51.198;6.824;2023-11-18T05:01:39;-21402.34;;;3.10;100.00
19890;BME280;10107;51.198;6.824;2023-11-18T05:05:41;-21402.59;;;3.11;100.00
19890;BME280;10107;51.198;6.824;2023-11-18T05:09:44;-21402.59;;;3.11;100.00
19890;BME280;10107;51.198;6.824;2023-11-18T05:13:45;-21402.59;;;3.11;100.00
19890;BME280;10107;51.198;6.824;2023-11-18T05:17:47;-21402.19;;;3.09;100.00
19890;BME280;10107;51.198;6.824;2023-11-18T05:21:48;-21402.06;;;3.09;100.00
19890;BME280;10107;51.198;6.824;2023-11-18T05:25:51;-21401.78;;;3.08;100.00
19890;BME280;10107;51.198;6.824;2023-11-18T05:29:53;-21402.06;;;3.09;100.00
19890;BME280;10107;51.198;6.824;2023-11-18T05:33:55;-21403.28;;;3.13;100.00
19890;BME280;10107;51.198;6.824;2023-11-18T05:37:57;-21404.88;;;3.20;100.00
19890;BME280;10107;51.198;6.824;2023-11-18T05:42:00;-21406.63;;;3.26;100.00
19890;BME280;10107;51.198;6.824;2023-11-18T05:46:02;-21408.22;;;3.32;100.00
19890;BME280;10107;51.198;6.824;2023-11-18T05:50:21;-21410.22;;;3.40;100.00
19890;BME280;10107;51.198;6.824;2023-11-18T05:54:22;-21411.44;;;3.45;100.00
19890;BME280;10107;51.198;6.824;2023-11-18T05:58:25;-21413.19;;;3.51;100.00
19890;BME280;10107;51.198;6.824;2023-11-18T06:02:28;-21413.31;;;3.52;100.00
19890;BME280;10107;51.198;6.824;2023-11-18T06:06:30;-21414.13;;;3.55;100.00
19890;BME280;10107;51.198;6.824;2023-11-18T06:10:32;-21415.47;;;3.60;100.00
19890;BME280;10107;51.198;6.824;2023-11-18T06:14:36;-21415.84;;;3.62;100.00
19890;BME280;10107;51.198;6.824;2023-11-18T06:18:38;-21416.53;;;3.64;100.00
19890;BME280;10107;51.198;6.824;2023-11-18T06:22:39;-21416.91;;;3.66;100.00
19890;BME280;10107;51.198;6.824;2023-11-18T06:26:41;-21417.72;;;3.69;100.00
19890;BME280;10107;51.198;6.824;2023-11-18T06:30:44;-21418.66;;;3.72;100.00
19890;BME280;10107;51.198;6.824;2023-11-18T06:34:46;-21419.47;;;3.75;100.00
19890;BME280;10107;51.198;6.824;2023-11-18T06:38:50;-21419.75;;;3.76;100.00
19890;BME280;10107;51.198;6.824;2023-11-18T06:42:52;-21420.28;;;3.79;100.00
19890;BME280;10107;51.198;6.824;2023-11-18T06:46:56;-21421.06;;;3.82;100.00
19890;BME280;10107;51.198;6.824;2023-11-18T06:50:57;-21421.88;;;3.85;100.00
19890;BME280;10107;51.198;6.824;2023-11-18T06:54:59;-21423.06;;;3.89;100.00
19890;BME280;10107;51.198;6.824;2023-11-18T06:59:01;-21424.41;;;3.94;100.00
19890;BME280;10107;51.198;6.824;2023-11-18T07:03:04;-21426.16;;;4.01;100.00
19890;BME280;10107;51.198;6.824;2023-11-18T07:07:05;-21427.75;;;4.07;100.00
19890;BME280;10107;51.198;6.824;2023-11-18T07:11:09;-21428.16;;;4.09;100.00
19890;BME280;10107;51.198;6.824;2023-11-18T07:15:10;-21429.63;;;4.14;100.00
19890;BME280;10107;51.198;6.824;2023-11-18T07:19:13;-21431.09;;;4.20;100.00
19890;BME280;10107;51.198;6.824;2023-11-18T07:23:20;-21432.03;;;4.24;100.00
19890;BME280;10107;51.198;6.824;2023-11-18T07:27:21;-21433.38;;;4.29;100.00
19890;BME280;10107;51.198;6.824;2023-11-18T07:31:23;-21433.78;;;4.30;100.00
19890;BME280;10107;51.198;6.824;2023-11-18T07:35:26;-21435.13;;;4.35;100.00
19890;BME280;10107;51.198;6.824;2023-11-18T07:39:28;-21435.78;;;4.38;100.00
19890;BME280;10107;51.198;6.824;2023-11-18T07:43:44;-21437.25;;;4.44;100.00
19890;BME280;10107;51.198;6.824;2023-11-18T07:47:45;-21438.31;;;4.48;100.00
19890;BME280;10107;51.198;6.824;2023-11-18T07:51:48;-21439.53;;;4.52;100.00
19890;BME280;10107;51.198;6.824;2023-11-18T07:55:50;-21440.34;;;4.55;100.00
19890;BME280;10107;51.198;6.824;2023-11-18T07:59:53;-21440.72;;;4.57;100.00
19890;BME280;10107;51.198;6.824;2023-11-18T08:03:54;-21441.00;;;4.58;100.00
19890;BME280;10107;51.198;6.824;2023-11-18T08:07:57;-21441.41;;;4.60;100.00
19890;BME280;10107;51.198;6.824;2023-11-18T08:11:59;-21443.53;;;4.68;100.00
19890;BME280;10107;51.198;6.824;2023-11-18T08:16:01;-21444.88;;;4.73;100.00
19890;BME280;10107;51.198;6.824;2023-11-18T08:20:03;-21446.22;;;4.78;100.00
19890;BME280;10107;51.198;6.824;2023-11-18T08:24:15;-21447.56;;;4.83;100.00
19890;BME280;10107;51.198;6.824;2023-11-18T08:28:17;-21449.56;;;4.91;100.00
19890;BME280;10107;51.198;6.824;2023-11-18T08:32:18;-21451.16;;;4.97;100.00
19890;BME280;10107;51.198;6.824;2023-11-18T08:36:20;-21454.09;;;5.08;100.00
19890;BME280;10107;51.198;6.824;2023-11-18T08:40:24;-21456.38;;;5.17;100.00
19890;BME280;10107;51.198;6.824;2023-11-18T08:44:25;-21457.69;;;5.22;100.00
19890;BME280;10107;51.198;6.824;2023-11-18T08:48:27;-21459.31;;;5.28;100.00
19890;BME280;10107;51.198;6.824;2023-11-18T08:52:29;-21461.03;;;5.35;100.00
19890;BME280;10107;51.198;6.824;2023-11-18T08:56:32;-21462.91;;;5.42;100.00
19890;BME280;10107;51.198;6.824;2023-11-18T09:00:35;-21465.19;;;5.51;100.00
19890;BME280;10107;51.198;6.824;2023-11-18T09:04:54;-21467.56;;;5.60;100.00
19890;BME280;10107;51.198;6.824;2023-11-18T09:08:55;-21471.06;;;5.73;100.00
19890;BME280;10107;51.198;6.824;2023-11-18T09:12:59;-21473.44;;;5.83;100.00
19890;BME280;10107;51.198;6.824;2023-11-18T09:17:01;-21475.31;;;5.90;100.00
19890;BME280;10107;51.198;6.824;2023-11-18T09:21:03;-21476.78;;;5.95;100.00
19890;BME280;10107;51.198;6.824;2023-11-18T09:25:06;-21475.84;;;5.92;100.00
19890;BME280;10107;51.198;6.824;2023-11-18T09:29:10;-21474.00;;;5.85;100.00
19890;BME280;10107;51.198;6.824;2023-11-18T09:33:14;-21473.19;;;5.82;100.00
19890;BME280;10107;51.198;6.824;2023-11-18T09:37:25;-21474.91;;;5.88;100.00
19890;BME280;10107;51.198;6.824;2023-11-18T09:41:27;-21476.53;;;5.94;100.00
19890;BME280;10107;51.198;6.824;2023-11-18T09:45:30;-21479.06;;;6.04;100.00
19890;BME280;10107;51.198;6.824;2023-11-18T09:49:40;-21482.25;;;6.17;100.00
19890;BME280;10107;51.198;6.824;2023-11-18T09:53:44;-21484.78;;;6.26;100.00
19890;BME280;10107;51.198;6.824;2023-11-18T09:57:52;-21486.13;;;6.31;100.00
19890;BME280;10107;51.198;6.824;2023-11-18T10:01:59;-21486.41;;;6.32;100.00
19890;BME280;10107;51.198;6.824;2023-11-18T10:06:05;-21485.31;;;6.28;100.00
19890;BME280;10107;51.198;6.824;2023-11-18T10:10:07;-21486.78;;;6.34;100.00
19890;BME280;10107;51.198;6.824;2023-11-18T10:14:15;-21489.72;;;6.45;100.00
19890;BME280;10107;51.198;6.824;2023-11-18T10:18:18;-21490.94;;;6.50;100.00
19890;BME280;10107;51.198;6.824;2023-11-18T10:22:24;-21491.31;;;6.51;100.00
19890;BME280;10107;51.198;6.824;2023-11-18T10:26:27;-21492.25;;;6.55;100.00
19890;BME280;10107;51.198;6.824;2023-11-18T10:30:29;-21492.78;;;6.57;100.00
19890;BME280;10107;51.198;6.824;2023-11-18T10:34:33;-21493.19;;;6.59;100.00
19890;BME280;10107;51.198;6.824;2023-11-18T10:38:38;-21494.00;;;6.62;100.00
19890;BME280;10107;51.198;6.824;2023-11-18T10:42:44;-21494.25;;;6.63;100.00
19890;BME280;10107;51.198;6.824;2023-11-18T10:46:50;-21494.53;;;6.64;100.00
19890;BME280;10107;51.198;6.824;2023-11-18T10:50:55;-21495.06;;;6.66;100.00
19890;BME280;10107;51.198;6.824;2023-11-18T10:54:59;-21495.47;;;6.67;100.00
19890;BME280;10107;51.198;6.824;2023-11-18T10:59:07;-21494.78;;;6.65;100.00
19890;BME280;10107;51.198;6.824;2023-11-18T11:03:09;-21495.06;;;6.66;100.00
19890;BME280;10107;51.198;6.824;2023-11-18T11:07:17;-21496.25;;;6.70;100.00
19890;BME280;10107;51.198;6.824;2023-11-18T11:11:21;-21496.66;;;6.72;100.00
19890;BME280;10107;51.198;6.824;2023-11-18T11:15:29;-21499.47;;;6.83;100.00
19890;BME280;10107;51.198;6.824;2023-11-18T11:19:34;-21502.13;;;6.93;100.00
19890;BME280;10107;51.198;6.824;2023-11-18T11:23:50;-21502.53;;;6.94;100.00
19890;BME280;10107;51.198;6.824;2023-11-18T11:27:59;-21501.06;;;6.89;100.00
19890;BME280;10107;51.198;6.824;2023-11-18T11:32:12;-21499.31;;;6.82;100.00
19890;BME280;10107;51.198;6.824;2023-11-18T11:36:21;-21499.31;;;6.82;100.00
19890;BME280;10107;51.198;6.824;2023-11-18T11:40:26;-21498.78;;;6.80;100.00
19890;BME280;10107;51.198;6.824;2023-11-18T11:44:30;-21499.59;;;6.83;100.00
19890;BME280;10107;51.198;6.824;2023-11-18T11:48:33;-21501.19;;;6.89;100.00
19890;BME280;10107;51.198;6.824;2023-11-18T11:52:36;-21503.44;;;6.98;100.00
19890;BME280;10107;51.198;6.824;2023-11-18T11:56:41;-21505.97;;;7.08;100.00
19890;BME280;10107;51.198;6.824;2023-11-18T12:00:43;-21507.31;;;7.13;100.00
19890;BME280;10107;51.198;6.824;2023-11-18T12:04:45;-21508.38;;;7.17;100.00
19890;BME280;10107;51.198;6.824;2023-11-18T12:08:47;-21507.03;;;7.12;100.00
19890;BME280;10107;51.198;6.824;2023-11-18T12:13:06;-21506.13;;;7.08;100.00
19890;BME280;10107;51.198;6.824;2023-11-18T12:17:09;-21504.50;;;7.02;100.00
19890;BME280;10107;51.198;6.824;2023-11-18T12:25:54;-21499.06;;;6.81;100.00
19890;BME280;10107;51.198;6.824;2023-11-18T12:29:58;-21496.78;;;6.72;100.00
19890;BME280;10107;51.198;6.824;2023-11-18T12:34:01;-21496.53;;;6.71;100.00
19890;BME280;10107;51.198;6.824;2023-11-18T12:38:26;-21498.53;;;6.79;100.00
19890;BME280;10107;51.198;6.824;2023-11-18T12:42:58;-21499.06;;;6.81;100.00
19890;BME280;10107;51.198;6.824;2023-11-18T12:47:02;-21499.84;;;6.84;100.00
19890;BME280;10107;51.198;6.824;2023-11-18T12:51:15;-21500.25;;;6.86;100.00
19890;BME280;10107;51.198;6.824;2023-11-18T12:55:20;-21500.78;;;6.88;100.00
19890;BME280;10107;51.198;6.824;2023-11-18T12:59:22;-21501.59;;;6.91;100.00
19890;BME280;10107;51.198;6.824;2023-11-18T13:03:25;-21501.44;;;6.90;100.00
19890;BME280;10107;51.198;6.824;2023-11-18T13:07:27;-21501.31;;;6.90;100.00
19890;BME280;10107;51.198;6.824;2023-11-18T13:11:29;-21502.13;;;6.93;100.00
19890;BME280;10107;51.198;6.824;2023-11-18T13:15:30;-21501.06;;;6.89;100.00
19890;BME280;10107;51.198;6.824;2023-11-18T13:19:34;-21500.25;;;6.86;100.00
19890;BME280;10107;51.198;6.824;2023-11-18T13:23:35;-21498.78;;;6.80;100.00
19890;BME280;10107;51.198;6.824;2023-11-18T13:27:37;-21498.78;;;6.80;100.00
19890;BME280;10107;51.198;6.824;2023-11-18T13:31:39;-21499.47;;;6.83;100.00
19890;BME280;10107;51.198;6.824;2023-11-18T13:35:42;-21500.38;;;6.86;100.00
19890;BME280;10107;51.198;6.824;2023-11-18T13:39:44;-21502.00;;;6.92;100.00
19890;BME280;10107;51.198;6.824;2023-11-18T13:43:47;-21502.53;;;6.94;100.00
19890;BME280;10107;51.198;6.824;2023-11-18T13:47:50;-21503.06;;;6.97;100.00
19890;BME280;10107;51.198;6.824;2023-11-18T13:51:54;-21502.25;;;6.93;100.00
19890;BME280;10107;51.198;6.824;2023-11-18T13:55:56;-21501.84;;;6.92;100.00
19890;BME280;10107;51.198;6.824;2023-11-18T13:59:57;-21501.72;;;6.91;100.00
19890;BME280;10107;51.198;6.824;2023-11-18T14:03:59;-21502.66;;;6.95;100.00
19890;BME280;10107;51.198;6.824;2023-11-18T14:08:06;-21503.59;;;6.99;100.00
19890;BME280;10107;51.198;6.824;2023-11-18T14:12:10;-21503.84;;;7.00;100.00
19890;BME280;10107;51.198;6.824;2023-11-18T14:16:12;-21503.84;;;7.00;100.00
19890;BME280;10107;51.198;6.824;2023-11-18T14:20:17;-21504.38;;;7.02;100.00
19890;BME280;10107;51.198;6.824;2023-11-18T14:24:22;-21503.31;;;6.98;100.00
19890;BME280;10107;51.198;6.824;2023-11-18T14:28:27;-21502.00;;;6.92;100.00
19890;BME280;10107;51.198;6.824;2023-11-18T14:32:29;-21500.66;;;6.87;100.00
19890;BME280;10107;51.198;6.824;2023-11-18T14:36:31;-21499.31;;;6.82;100.00
19890;BME280;10107;51.198;6.824;2023-11-18T14:40:34;-21499.19;;;6.82;100.00
19890;BME280;10107;51.198;6.824;2023-11-18T14:44:36;-21498.78;;;6.80;100.00
19890;BME280;10107;51.198;6.824;2023-11-18T14:48:37;-21498.53;;;6.79;100.00
19890;BME280;10107;51.198;6.824;2023-11-18T14:52:39;-21497.19;;;6.74;100.00
19890;BME280;10107;51.198;6.824;2023-11-18T14:56:43;-21496.13;;;6.70;100.00
19890;BME280;10107;51.198;6.824;2023-11-18T15:00:47;-21495.47;;;6.67;100.00
19890;BME280;10107;51.198;6.824;2023-11-18T15:04:49;-21494.25;;;6.63;100.00
19890;BME280;10107;51.198;6.824;2023-11-18T15:08:52;-21493.72;;;6.61;100.00
19890;BME280;10107;51.198;6.824;2023-11-18T15:12:57;-21492.94;;;6.58;100.00
19890;BME280;10107;51.198;6.824;2023-11-18T15:17:01;-21493.06;;;6.58;100.00
19890;BME280;10107;51.198;6.824;2023-11-18T15:21:03;-21492.94;;;6.58;100.00
19890;BME280;10107;51.198;6.824;2023-11-18T15:25:05;-21492.41;;;6.56;100.00
19890;BME280;10107;51.198;6.824;2023-11-18T15:29:12;-21491.84;;;6.53;100.00
19890;BME280;10107;51.198;6.824;2023-11-18T15:33:15;-21492.41;;;6.56;100.00
19890;BME280;10107;51.198;6.824;2023-11-18T15:37:16;-21491.84;;;6.53;100.00
19890;BME280;10107;51.198;6.824;2023-11-18T15:41:18;-21491.59;;;6.52;100.00
19890;BME280;10107;51.198;6.824;2023-11-18T15:45:22;-21491.47;;;6.52;100.00
19890;BME280;10107;51.198;6.824;2023-11-18T15:49:25;-21491.19;;;6.51;100.00
19890;BME280;10107;51.198;6.824;2023-11-18T15:53:26;-21490.78;;;6.49;100.00
19890;BME280;10107;51.198;6.824;2023-11-18T15:57:28;-21491.31;;;6.51;100.00
19890;BME280;10107;51.198;6.824;2023-11-18T16:01:31;-21490.94;;;6.50;100.00
19890;BME280;10107;51.198;6.824;2023-11-18T16:05:34;-21490.25;;;6.47;100.00
19890;BME280;10107;51.198;6.824;2023-11-18T16:09:36;-21491.19;;;6.51;100.00
19890;BME280;10107;51.198;6.824;2023-11-18T16:13:37;-21491.59;;;6.52;100.00
19890;BME280;10107;51.198;6.824;2023-11-18T16:17:40;-21492.25;;;6.55;100.00
19890;BME280;10107;51.198;6.824;2023-11-18T16:21:42;-21491.84;;;6.53;100.00
19890;BME280;10107;51.198;6.824;2023-11-18T16:25:46;-21492.66;;;6.57;100.00
19890;BME280;10107;51.198;6.824;2023-11-18T16:29:47;-21492.66;;;6.57;100.00
19890;BME280;10107;51.198;6.824;2023-11-18T16:33:50;-21493.06;;;6.58;100.00
19890;BME280;10107;51.198;6.824;2023-11-18T16:37:52;-21493.06;;;6.58;100.00
19890;BME280;10107;51.198;6.824;2023-11-18T16:41:54;-21493.19;;;6.59;100.00
19890;BME280;10107;51.198;6.824;2023-11-18T16:45:56;-21492.78;;;6.57;100.00
19890;BME280;10107;51.198;6.824;2023-11-18T16:50:00;-21492.78;;;6.57;100.00
19890;BME280;10107;51.198;6.824;2023-11-18T16:54:03;-21493.06;;;6.58;100.00
19890;BME280;10107;51.198;6.824;2023-11-18T16:58:05;-21493.31;;;6.59;100.00
19890;BME280;10107;51.198;6.824;2023-11-18T17:02:07;-21493.84;;;6.61;100.00
19890;BME280;10107;51.198;6.824;2023-11-18T17:06:10;-21493.59;;;6.60;100.00
19890;BME280;10107;51.198;6.824;2023-11-18T17:10:14;-21493.47;;;6.60;100.00
19890;BME280;10107;51.198;6.824;2023-11-18T17:14:17;-21493.72;;;6.61;100.00
19890;BME280;10107;51.198;6.824;2023-11-18T17:18:19;-21493.72;;;6.61;100.00
19890;BME280;10107;51.198;6.824;2023-11-18T17:22:22;-21494.25;;;6.63;100.00
19890;BME280;10107;51.198;6.824;2023-11-18T17:26:25;-21494.78;;;6.65;100.00
19890;BME280;10107;51.198;6.824;2023-11-18T17:30:27;-21495.19;;;6.66;100.00
19890;BME280;10107;51.198;6.824;2023-11-18T17:34:34;-21495.84;;;6.69;100.00
19890;BME280;10107;51.198;6.824;2023-11-18T17:38:38;-21495.47;;;6.67;100.00
19890;BME280;10107;51.198;6.824;2023-11-18T17:42:40;-21495.31;;;6.67;100.00
19890;BME280;10107;51.198;6.824;2023-11-18T17:46:42;-21496.13;;;6.70;100.00
19890;BME280;10107;51.198;6.824;2023-11-18T17:50:44;-21496.53;;;6.71;100.00
19890;BME280;10107;51.198;6.824;2023-11-18T17:54:47;-21497.19;;;6.74;100.00
19890;BME280;10107;51.198;6.824;2023-11-18T17:58:48;-21497.47;;;6.75;100.00
19890;BME280;10107;51.198;6.824;2023-11-18T18:02:51;-21497.47;;;6.75;100.00
19890;BME280;10107;51.198;6.824;2023-11-18T18:06:53;-21498.38;;;6.79;100.00
19890;BME280;10107;51.198;6.824;2023-11-18T18:10:55;-21498.00;;;6.77;100.00
19890;BME280;10107;51.198;6.824;2023-11-18T18:14:57;-21498.13;;;6.78;100.00
19890;BME280;10107;51.198;6.824;2023-11-18T18:18:59;-21499.31;;;6.82;100.00
19890;BME280;10107;51.198;6.824;2023-11-18T18:23:00;-21500.13;;;6.85;100.00
19890;BME280;10107;51.198;6.824;2023-11-18T18:27:05;-21501.19;;;6.89;100.00
19890;BME280;10107;51.198;6.824;2023-11-18T18:31:07;-21502.13;;;6.93;100.00
19890;BME280;10107;51.198;6.824;2023-11-18T18:35:08;-21502.38;;;6.94;100.00
19890;BME280;10107;51.198;6.824;2023-11-18T18:39:11;-21503.31;;;6.98;100.00
19890;BME280;10107;51.198;6.824;2023-11-18T18:43:15;-21502.78;;;6.96;100.00
19890;BME280;10107;51.198;6.824;2023-11-18T18:47:16;-21503.19;;;6.97;100.00
19890;BME280;10107;51.198;6.824;2023-11-18T18:51:19;-21504.13;;;7.01;100.00
19890;BME280;10107;51.198;6.824;2023-11-18T18:55:22;-21504.91;;;7.04;100.00
19890;BME280;10107;51.198;6.824;2023-11-18T18:59:26;-21505.97;;;7.08;100.00
19890;BME280;10107;51.198;6.824;2023-11-18T19:03:27;-21506.38;;;7.09;100.00
19890;BME280;10107;51.198;6.824;2023-11-18T19:07:29;-21507.31;;;7.13;100.00
19890;BME280;10107;51.198;6.824;2023-11-18T19:11:32;-21507.31;;;7.13;100.00
19890;BME280;10107;51.198;6.824;2023-11-18T19:15:35;-21507.56;;;7.14;100.00
19890;BME280;10107;51.198;6.824;2023-11-18T19:19:37;-21508.09;;;7.16;100.00
19890;BME280;10107;51.198;6.824;2023-11-18T19:23:38;-21508.66;;;7.18;100.00
19890;BME280;10107;51.198;6.824;2023-11-18T19:27:40;-21509.56;;;7.22;100.00
19890;BME280;10107;51.198;6.824;2023-11-18T19:31:43;-21510.25;;;7.24;100.00
19890;BME280;10107;51.198;6.824;2023-11-18T19:35:45;-21511.56;;;7.29;100.00
19890;BME280;10107;51.198;6.824;2023-11-18T19:39:46;-21512.25;;;7.32;100.00
19890;BME280;10107;51.198;6.824;2023-11-18T19:43:49;-21513.16;;;7.36;100.00
19890;BME280;10107;51.198;6.824;2023-11-18T19:47:51;-21513.97;;;7.39;100.00
19890;BME280;10107;51.198;6.824;2023-11-18T19:51:53;-21514.38;;;7.40;100.00
19890;BME280;10107;51.198;6.824;2023-11-18T19:55:55;-21515.03;;;7.43;100.00
19890;BME280;10107;51.198;6.824;2023-11-18T19:59:56;-21515.69;;;7.45;100.00
19890;BME280;10107;51.198;6.824;2023-11-18T20:03:59;-21516.50;;;7.48;100.00
19890;BME280;10107;51.198;6.824;2023-11-18T20:08:01;-21517.03;;;7.50;100.00
19890;BME280;10107;51.198;6.824;2023-11-18T20:12:03;-21517.69;;;7.53;100.00
19890;BME280;10107;51.198;6.824;2023-11-18T20:16:06;-21518.63;;;7.57;100.00
19890;BME280;10107;51.198;6.824;2023-11-18T20:20:11;-21518.75;;;7.57;100.00
19890;BME280;10107;51.198;6.824;2023-11-18T20:24:12;-21518.91;;;7.58;100.00
19890;BME280;10107;51.198;6.824;2023-11-18T20:28:14;-21519.16;;;7.59;100.00
19890;BME280;10107;51.198;6.824;2023-11-18T20:32:16;-21519.81;;;7.61;100.00
19890;BME280;10107;51.198;6.824;2023-11-18T20:36:20;-21520.88;;;7.65;100.00
19890;BME280;10107;51.198;6.824;2023-11-18T20:40:21;-21521.16;;;7.66;100.00
19890;BME280;10107;51.198;6.824;2023-11-18T20:44:23;-21521.97;;;7.69;100.00
19890;BME280;10107;51.198;6.824;2023-11-18T20:48:25;-21521.97;;;7.69;100.00
19890;BME280;10107;51.198;6.824;2023-11-18T20:52:28;-21522.50;;;7.71;100.00
19890;BME280;10107;51.198;6.824;2023-11-18T20:56:32;-21522.50;;;7.71;100.00
19890;BME280;10107;51.198;6.824;2023-11-18T21:00:34;-21522.75;;;7.72;100.00
19890;BME280;10107;51.198;6.824;2023-11-18T21:04:36;-21522.88;;;7.73;100.00
19890;BME280;10107;51.198;6.824;2023-11-18T21:08:39;-21523.16;;;7.74;100.00
19890;BME280;10107;51.198;6.824;2023-11-18T21:12:40;-21523.56;;;7.76;100.00
19890;BME280;10107;51.198;6.824;2023-11-18T21:16:42;-21523.56;;;7.76;100.00